sensor_id;sensor_type;location;lat;lon;timestamp;temperature;humidity
69895;DHT22;57172;52.034;5.090;2023-05-21T00:01:45;17.40;54.60
69895;DHT22;57172;52.034;5.090;2023-05-21T00:04:14;17.40;54.60
69895;DHT22;57172;52.034;5.090;2023-05-21T00:06:41;17.30;54.70
69895;DHT22;57172;52.034;5.090;2023-05-21T00:09:08;17.30;54.80
69895;DHT22;57172;52.034;5.090;2023-05-21T00:11:35;17.20;55.10
69895;DHT22;57172;52.034;5.090;2023-05-21T00:14:02;17.20;55.30
69895;DHT22;57172;52.034;5.090;2023-05-21T00:16:29;17.20;55.30
69895;DHT22;57172;52.034;5.090;2023-05-21T00:18:55;17.20;55.30
69895;DHT22;57172;52.034;5.090;2023-05-21T00:21:23;17.20;55.30
69895;DHT22;57172;52.034;5.090;2023-05-21T00:23:52;17.10;55.60
69895;DHT22;57172;52.034;5.090;2023-05-21T00:26:20;17.10;55.70
69895;DHT22;57172;52.034;5.090;2023-05-21T00:28:48;17.10;55.70
69895;DHT22;57172;52.034;5.090;2023-05-21T00:31:15;17.00;56.00
69895;DHT22;57172;52.034;5.090;2023-05-21T00:33:42;17.00;55.90
69895;DHT22;57172;52.034;5.090;2023-05-21T00:36:09;17.00;56.10
69895;DHT22;57172;52.034;5.090;2023-05-21T00:38:41;17.00;56.20
69895;DHT22;57172;52.034;5.090;2023-05-21T00:41:12;16.90;56.40
69895;DHT22;57172;52.034;5.090;2023-05-21T00:43:40;17.00;56.50
69895;DHT22;57172;52.034;5.090;2023-05-21T00:46:12;17.00;56.60
69895;DHT22;57172;52.034;5.090;2023-05-21T00:48:39;17.00;56.70
69895;DHT22;57172;52.034;5.090;2023-05-21T00:51:06;17.00;56.70
69895;DHT22;57172;52.034;5.090;2023-05-21T00:53:33;17.10;56.80
69895;DHT22;57172;52.034;5.090;2023-05-21T00:56:02;17.10;56.70
69895;DHT22;57172;52.034;5.090;2023-05-21T00:58:29;17.10;56.70
69895;DHT22;57172;52.034;5.090;2023-05-21T01:00:59;17.10;56.90
69895;DHT22;57172;52.034;5.090;2023-05-21T01:03:29;17.20;56.90
69895;DHT22;57172;52.034;5.090;2023-05-21T01:05:56;17.10;56.80
69895;DHT22;57172;52.034;5.090;2023-05-21T01:08:26;17.10;56.90
69895;DHT22;57172;52.034;5.090;2023-05-21T01:10:55;17.10;57.00
69895;DHT22;57172;52.034;5.090;2023-05-21T01:13:23;17.10;57.00
69895;DHT22;57172;52.034;5.090;2023-05-21T01:15:52;17.10;57.00
69895;DHT22;57172;52.034;5.090;2023-05-21T01:18:20;17.10;57.20
69895;DHT22;57172;52.034;5.090;2023-05-21T01:20:47;17.10;57.10
69895;DHT22;57172;52.034;5.090;2023-05-21T01:23:18;17.10;57.10
69895;DHT22;57172;52.034;5.090;2023-05-21T01:25:46;17.10;57.10
69895;DHT22;57172;52.034;5.090;2023-05-21T01:28:13;17.00;57.20
69895;DHT22;57172;52.034;5.090;2023-05-21T01:30:41;17.00;57.30
69895;DHT22;57172;52.034;5.090;2023-05-21T01:33:24;17.00;57.40
69895;DHT22;57172;52.034;5.090;2023-05-21T01:36:17;17.00;57.40
69895;DHT22;57172;52.034;5.090;2023-05-21T01:39:00;17.00;57.60
69895;DHT22;57172;52.034;5.090;2023-05-21T01:41:34;17.00;57.50
69895;DHT22;57172;52.034;5.090;2023-05-21T01:44:04;17.00;57.40
69895;DHT22;57172;52.034;5.090;2023-05-21T01:46:34;17.00;57.70
69895;DHT22;57172;52.034;5.090;2023-05-21T01:49:04;17.00;57.70
69895;DHT22;57172;52.034;5.090;2023-05-21T01:51:32;17.00;57.70
69895;DHT22;57172;52.034;5.090;2023-05-21T01:53:59;17.00;57.80
69895;DHT22;57172;52.034;5.090;2023-05-21T01:56:26;17.00;57.90
69895;DHT22;57172;52.034;5.090;2023-05-21T01:58:57;17.00;57.90
69895;DHT22;57172;52.034;5.090;2023-05-21T02:01:25;17.00;57.90
69895;DHT22;57172;52.034;5.090;2023-05-21T02:03:56;17.00;57.80
69895;DHT22;57172;52.034;5.090;2023-05-21T02:06:26;16.90;58.00
69895;DHT22;57172;52.034;5.090;2023-05-21T02:08:53;16.90;58.00
69895;DHT22;57172;52.034;5.090;2023-05-21T02:11:21;16.90;58.10
69895;DHT22;57172;52.034;5.090;2023-05-21T02:13:48;16.90;58.10
69895;DHT22;57172;52.034;5.090;2023-05-21T02:16:17;16.90;58.30
69895;DHT22;57172;52.034;5.090;2023-05-21T02:18:45;16.90;58.30
69895;DHT22;57172;52.034;5.090;2023-05-21T02:21:13;16.80;58.30
69895;DHT22;57172;52.034;5.090;2023-05-21T02:23:40;16.80;58.50
69895;DHT22;57172;52.034;5.090;2023-05-21T02:26:08;16.80;58.50
69895;DHT22;57172;52.034;5.090;2023-05-21T02:28:35;16.80;58.50
69895;DHT22;57172;52.034;5.090;2023-05-21T02:31:02;16.80;58.50
69895;DHT22;57172;52.034;5.090;2023-05-21T02:33:29;16.80;58.60
69895;DHT22;57172;52.034;5.090;2023-05-21T02:35:57;16.80;58.70
69895;DHT22;57172;52.034;5.090;2023-05-21T02:38:24;16.80;58.70
69895;DHT22;57172;52.034;5.090;2023-05-21T02:40:51;16.80;58.70
69895;DHT22;57172;52.034;5.090;2023-05-21T02:43:18;16.80;58.70
69895;DHT22;57172;52.034;5.090;2023-05-21T02:45:45;16.80;58.70
69895;DHT22;57172;52.034;5.090;2023-05-21T02:48:13;16.70;58.80
69895;DHT22;57172;52.034;5.090;2023-05-21T02:50:41;16.70;58.90
69895;DHT22;57172;52.034;5.090;2023-05-21T02:53:07;16.70;58.90
69895;DHT22;57172;52.034;5.090;2023-05-21T02:55:35;16.60;59.00
69895;DHT22;57172;52.034;5.090;2023-05-21T02:58:02;16.60;59.10
69895;DHT22;57172;52.034;5.090;2023-05-21T03:00:29;16.60;59.20
69895;DHT22;57172;52.034;5.090;2023-05-21T03:02:56;16.60;59.50
69895;DHT22;57172;52.034;5.090;2023-05-21T03:05:23;16.60;59.50
69895;DHT22;57172;52.034;5.090;2023-05-21T03:07:50;16.60;59.50
69895;DHT22;57172;52.034;5.090;2023-05-21T03:10:17;16.60;59.50
69895;DHT22;57172;52.034;5.090;2023-05-21T03:12:44;16.70;59.50
69895;DHT22;57172;52.034;5.090;2023-05-21T03:15:11;16.70;59.60
69895;DHT22;57172;52.034;5.090;2023-05-21T03:17:40;16.60;59.70
69895;DHT22;57172;52.034;5.090;2023-05-21T03:20:11;16.70;59.80
69895;DHT22;57172;52.034;5.090;2023-05-21T03:22:44;16.70;59.90
69895;DHT22;57172;52.034;5.090;2023-05-21T03:25:12;16.70;59.80
69895;DHT22;57172;52.034;5.090;2023-05-21T03:27:39;16.60;60.00
69895;DHT22;57172;52.034;5.090;2023-05-21T03:30:16;16.60;60.00
69895;DHT22;57172;52.034;5.090;2023-05-21T03:33:03;16.60;59.90
69895;DHT22;57172;52.034;5.090;2023-05-21T03:35:31;16.60;59.90
69895;DHT22;57172;52.034;5.090;2023-05-21T03:37:59;16.60;60.00
69895;DHT22;57172;52.034;5.090;2023-05-21T03:40:25;16.60;60.00
69895;DHT22;57172;52.034;5.090;2023-05-21T03:42:53;16.60;60.10
69895;DHT22;57172;52.034;5.090;2023-05-21T03:45:20;16.60;60.10
69895;DHT22;57172;52.034;5.090;2023-05-21T03:48:07;16.60;60.10
69895;DHT22;57172;52.034;5.090;2023-05-21T03:50:34;16.50;60.20
69895;DHT22;57172;52.034;5.090;2023-05-21T03:53:02;16.50;60.20
69895;DHT22;57172;52.034;5.090;2023-05-21T03:55:29;16.50;60.30
69895;DHT22;57172;52.034;5.090;2023-05-21T03:57:56;16.50;60.40
69895;DHT22;57172;52.034;5.090;2023-05-21T04:00:23;16.50;60.50
69895;DHT22;57172;52.034;5.090;2023-05-21T04:02:51;16.40;60.50
69895;DHT22;57172;52.034;5.090;2023-05-21T04:05:20;16.40;60.60
69895;DHT22;57172;52.034;5.090;2023-05-21T04:07:47;16.50;60.70
69895;DHT22;57172;52.034;5.090;2023-05-21T04:10:14;16.40;60.70
69895;DHT22;57172;52.034;5.090;2023-05-21T04:12:41;16.40;60.80
69895;DHT22;57172;52.034;5.090;2023-05-21T04:15:08;16.40;61.00
69895;DHT22;57172;52.034;5.090;2023-05-21T04:17:35;16.40;61.00
69895;DHT22;57172;52.034;5.090;2023-05-21T04:20:02;16.50;60.90
69895;DHT22;57172;52.034;5.090;2023-05-21T04:22:30;16.50;61.10
69895;DHT22;57172;52.034;5.090;2023-05-21T04:24:58;16.50;61.10
69895;DHT22;57172;52.034;5.090;2023-05-21T04:27:30;16.50;61.10
69895;DHT22;57172;52.034;5.090;2023-05-21T04:29:57;16.50;61.20
69895;DHT22;57172;52.034;5.090;2023-05-21T04:32:24;16.50;61.20
69895;DHT22;57172;52.034;5.090;2023-05-21T04:34:51;16.50;61.30
69895;DHT22;57172;52.034;5.090;2023-05-21T04:37:18;16.50;61.30
69895;DHT22;57172;52.034;5.090;2023-05-21T04:39:45;16.50;61.40
69895;DHT22;57172;52.034;5.090;2023-05-21T04:42:12;16.50;61.50
69895;DHT22;57172;52.034;5.090;2023-05-21T04:44:40;16.50;61.70
69895;DHT22;57172;52.034;5.090;2023-05-21T04:47:10;16.50;61.70
69895;DHT22;57172;52.034;5.090;2023-05-21T04:49:40;16.50;61.80
69895;DHT22;57172;52.034;5.090;2023-05-21T04:52:07;16.50;61.90
69895;DHT22;57172;52.034;5.090;2023-05-21T04:54:34;16.50;61.90
69895;DHT22;57172;52.034;5.090;2023-05-21T04:57:02;16.60;62.10
69895;DHT22;57172;52.034;5.090;2023-05-21T04:59:29;16.60;61.90
69895;DHT22;57172;52.034;5.090;2023-05-21T05:01:56;16.60;62.00
69895;DHT22;57172;52.034;5.090;2023-05-21T05:04:23;16.60;62.00
69895;DHT22;57172;52.034;5.090;2023-05-21T05:06:50;16.60;62.00
69895;DHT22;57172;52.034;5.090;2023-05-21T05:09:18;16.60;62.20
69895;DHT22;57172;52.034;5.090;2023-05-21T05:11:47;16.60;62.30
69895;DHT22;57172;52.034;5.090;2023-05-21T05:14:14;16.60;62.10
69895;DHT22;57172;52.034;5.090;2023-05-21T05:16:43;16.60;62.10
69895;DHT22;57172;52.034;5.090;2023-05-21T05:19:10;16.60;62.20
69895;DHT22;57172;52.034;5.090;2023-05-21T05:21:37;16.70;62.20
69895;DHT22;57172;52.034;5.090;2023-05-21T05:24:04;16.70;62.10
69895;DHT22;57172;52.034;5.090;2023-05-21T05:26:31;16.70;62.20
69895;DHT22;57172;52.034;5.090;2023-05-21T05:28:58;16.70;62.30
69895;DHT22;57172;52.034;5.090;2023-05-21T05:31:26;16.70;62.30
69895;DHT22;57172;52.034;5.090;2023-05-21T05:33:53;16.80;62.30
69895;DHT22;57172;52.034;5.090;2023-05-21T05:36:22;16.80;62.30
69895;DHT22;57172;52.034;5.090;2023-05-21T05:38:48;16.80;62.30
69895;DHT22;57172;52.034;5.090;2023-05-21T05:41:15;16.80;62.20
69895;DHT22;57172;52.034;5.090;2023-05-21T05:43:43;16.90;62.20
69895;DHT22;57172;52.034;5.090;2023-05-21T05:46:10;16.90;62.30
69895;DHT22;57172;52.034;5.090;2023-05-21T05:48:37;17.00;62.30
69895;DHT22;57172;52.034;5.090;2023-05-21T05:51:04;17.00;62.10
69895;DHT22;57172;52.034;5.090;2023-05-21T05:53:31;16.90;62.10
69895;DHT22;57172;52.034;5.090;2023-05-21T05:55:58;16.90;62.30
69895;DHT22;57172;52.034;5.090;2023-05-21T05:58:26;17.00;62.30
69895;DHT22;57172;52.034;5.090;2023-05-21T06:01:05;17.00;62.20
69895;DHT22;57172;52.034;5.090;2023-05-21T06:03:32;17.10;62.20
69895;DHT22;57172;52.034;5.090;2023-05-21T06:06:07;17.10;62.30
69895;DHT22;57172;52.034;5.090;2023-05-21T06:08:34;17.20;62.50
69895;DHT22;57172;52.034;5.090;2023-05-21T06:11:03;17.30;62.30
69895;DHT22;57172;52.034;5.090;2023-05-21T06:13:30;17.40;62.30
69895;DHT22;57172;52.034;5.090;2023-05-21T06:15:57;17.40;61.80
69895;DHT22;57172;52.034;5.090;2023-05-21T06:18:24;17.50;61.80
69895;DHT22;57172;52.034;5.090;2023-05-21T06:20:52;17.50;61.80
69895;DHT22;57172;52.034;5.090;2023-05-21T06:23:20;17.60;61.70
69895;DHT22;57172;52.034;5.090;2023-05-21T06:25:48;17.60;61.50
69895;DHT22;57172;52.034;5.090;2023-05-21T06:28:15;17.70;61.40
69895;DHT22;57172;52.034;5.090;2023-05-21T06:30:43;17.70;61.50
69895;DHT22;57172;52.034;5.090;2023-05-21T06:33:10;17.80;61.60
69895;DHT22;57172;52.034;5.090;2023-05-21T06:35:38;18.00;61.30
69895;DHT22;57172;52.034;5.090;2023-05-21T06:38:07;18.10;61.10
69895;DHT22;57172;52.034;5.090;2023-05-21T06:40:34;18.20;61.20
69895;DHT22;57172;52.034;5.090;2023-05-21T06:43:02;18.40;60.80
69895;DHT22;57172;52.034;5.090;2023-05-21T06:46:09;18.50;60.20
69895;DHT22;57172;52.034;5.090;2023-05-21T06:48:38;18.50;60.00
69895;DHT22;57172;52.034;5.090;2023-05-21T06:51:05;18.60;60.00
69895;DHT22;57172;52.034;5.090;2023-05-21T06:53:32;18.70;59.70
69895;DHT22;57172;52.034;5.090;2023-05-21T06:55:59;18.70;59.60
69895;DHT22;57172;52.034;5.090;2023-05-21T06:58:34;18.70;59.70
69895;DHT22;57172;52.034;5.090;2023-05-21T07:01:01;18.80;59.80
69895;DHT22;57172;52.034;5.090;2023-05-21T07:03:28;18.90;59.50
69895;DHT22;57172;52.034;5.090;2023-05-21T07:05:59;19.00;59.30
69895;DHT22;57172;52.034;5.090;2023-05-21T07:08:26;19.20;59.10
69895;DHT22;57172;52.034;5.090;2023-05-21T07:10:53;19.30;59.00
69895;DHT22;57172;52.034;5.090;2023-05-21T07:13:22;19.30;58.60
69895;DHT22;57172;52.034;5.090;2023-05-21T07:15:48;19.40;58.30
69895;DHT22;57172;52.034;5.090;2023-05-21T07:18:15;19.50;58.30
69895;DHT22;57172;52.034;5.090;2023-05-21T07:20:43;19.50;58.00
69895;DHT22;57172;52.034;5.090;2023-05-21T07:23:13;19.50;57.90
69895;DHT22;57172;52.034;5.090;2023-05-21T07:25:40;19.50;57.90
69895;DHT22;57172;52.034;5.090;2023-05-21T07:28:07;19.50;57.90
69895;DHT22;57172;52.034;5.090;2023-05-21T07:30:34;19.50;57.90
69895;DHT22;57172;52.034;5.090;2023-05-21T07:33:04;19.60;58.00
69895;DHT22;57172;52.034;5.090;2023-05-21T07:35:31;19.60;57.90
69895;DHT22;57172;52.034;5.090;2023-05-21T07:37:58;19.70;58.10
69895;DHT22;57172;52.034;5.090;2023-05-21T07:40:25;19.90;57.80
69895;DHT22;57172;52.034;5.090;2023-05-21T07:42:53;20.00;57.70
69895;DHT22;57172;52.034;5.090;2023-05-21T07:45:21;20.10;57.50
69895;DHT22;57172;52.034;5.090;2023-05-21T07:47:48;20.30;57.20
69895;DHT22;57172;52.034;5.090;2023-05-21T07:50:15;20.40;57.10
69895;DHT22;57172;52.034;5.090;2023-05-21T07:52:43;20.60;56.50
69895;DHT22;57172;52.034;5.090;2023-05-21T07:55:10;20.70;56.30
69895;DHT22;57172;52.034;5.090;2023-05-21T07:57:38;20.80;56.00
69895;DHT22;57172;52.034;5.090;2023-05-21T08:00:14;20.90;55.60
69895;DHT22;57172;52.034;5.090;2023-05-21T08:02:41;21.00;55.80
69895;DHT22;57172;52.034;5.090;2023-05-21T08:05:11;21.10;55.50
69895;DHT22;57172;52.034;5.090;2023-05-21T08:07:38;21.20;55.50
69895;DHT22;57172;52.034;5.090;2023-05-21T08:10:06;21.20;55.40
69895;DHT22;57172;52.034;5.090;2023-05-21T08:12:34;21.30;55.10
69895;DHT22;57172;52.034;5.090;2023-05-21T08:15:03;21.30;54.60
69895;DHT22;57172;52.034;5.090;2023-05-21T08:17:33;21.30;54.30
69895;DHT22;57172;52.034;5.090;2023-05-21T08:20:00;21.30;54.20
69895;DHT22;57172;52.034;5.090;2023-05-21T08:22:29;21.30;54.30
69895;DHT22;57172;52.034;5.090;2023-05-21T08:24:55;21.30;54.60
69895;DHT22;57172;52.034;5.090;2023-05-21T08:27:22;21.50;54.30
69895;DHT22;57172;52.034;5.090;2023-05-21T08:29:59;21.60;54.10
69895;DHT22;57172;52.034;5.090;2023-05-21T08:32:41;21.70;53.80
69895;DHT22;57172;52.034;5.090;2023-05-21T08:35:10;21.80;53.60
69895;DHT22;57172;52.034;5.090;2023-05-21T08:37:57;21.90;53.80
69895;DHT22;57172;52.034;5.090;2023-05-21T08:40:59;22.20;54.10
69895;DHT22;57172;52.034;5.090;2023-05-21T08:43:27;22.50;53.80
69895;DHT22;57172;52.034;5.090;2023-05-21T08:45:55;22.60;53.00
69895;DHT22;57172;52.034;5.090;2023-05-21T08:48:25;22.80;52.70
69895;DHT22;57172;52.034;5.090;2023-05-21T08:50:53;22.90;51.80
69895;DHT22;57172;52.034;5.090;2023-05-21T08:53:28;22.90;51.20
69895;DHT22;57172;52.034;5.090;2023-05-21T08:55:56;22.90;51.20
69895;DHT22;57172;52.034;5.090;2023-05-21T08:58:33;23.00;51.40
69895;DHT22;57172;52.034;5.090;2023-05-21T09:01:01;23.20;51.30
69895;DHT22;57172;52.034;5.090;2023-05-21T09:03:30;23.40;50.70
69895;DHT22;57172;52.034;5.090;2023-05-21T09:05:59;23.60;50.40
69895;DHT22;57172;52.034;5.090;2023-05-21T09:08:34;23.70;50.10
69895;DHT22;57172;52.034;5.090;2023-05-21T09:11:05;23.80;49.60
69895;DHT22;57172;52.034;5.090;2023-05-21T09:13:42;23.70;49.10
69895;DHT22;57172;52.034;5.090;2023-05-21T09:16:17;23.80;49.50
69895;DHT22;57172;52.034;5.090;2023-05-21T09:18:45;24.00;49.70
69895;DHT22;57172;52.034;5.090;2023-05-21T09:21:26;24.20;49.10
69895;DHT22;57172;52.034;5.090;2023-05-21T09:23:58;24.30;48.50
69895;DHT22;57172;52.034;5.090;2023-05-21T09:26:26;24.30;48.40
69895;DHT22;57172;52.034;5.090;2023-05-21T09:28:58;24.40;48.10
69895;DHT22;57172;52.034;5.090;2023-05-21T09:31:26;24.40;48.00
69895;DHT22;57172;52.034;5.090;2023-05-21T09:33:53;24.50;48.00
69895;DHT22;57172;52.034;5.090;2023-05-21T09:36:23;24.50;47.90
69895;DHT22;57172;52.034;5.090;2023-05-21T09:38:52;24.60;48.20
69895;DHT22;57172;52.034;5.090;2023-05-21T09:41:19;24.80;48.30
69895;DHT22;57172;52.034;5.090;2023-05-21T09:43:48;25.10;47.90
69895;DHT22;57172;52.034;5.090;2023-05-21T09:46:20;25.40;47.30
69895;DHT22;57172;52.034;5.090;2023-05-21T09:48:47;25.60;46.50
69895;DHT22;57172;52.034;5.090;2023-05-21T09:51:18;25.80;46.90
69895;DHT22;57172;52.034;5.090;2023-05-21T09:53:53;26.20;46.80
69895;DHT22;57172;52.034;5.090;2023-05-21T09:56:21;26.60;45.90
69895;DHT22;57172;52.034;5.090;2023-05-21T09:59:09;27.10;46.00
69895;DHT22;57172;52.034;5.090;2023-05-21T10:01:36;27.80;43.70
69895;DHT22;57172;52.034;5.090;2023-05-21T10:04:07;28.00;42.70
69895;DHT22;57172;52.034;5.090;2023-05-21T10:06:40;28.10;42.10
69895;DHT22;57172;52.034;5.090;2023-05-21T10:09:11;28.30;42.20
69895;DHT22;57172;52.034;5.090;2023-05-21T10:11:43;28.70;41.90
69895;DHT22;57172;52.034;5.090;2023-05-21T10:14:19;29.20;42.00
69895;DHT22;57172;52.034;5.090;2023-05-21T10:16:47;29.90;40.90
69895;DHT22;57172;52.034;5.090;2023-05-21T10:19:15;30.40;39.20
69895;DHT22;57172;52.034;5.090;2023-05-21T10:21:43;30.50;38.50
69895;DHT22;57172;52.034;5.090;2023-05-21T10:24:10;30.60;38.60
69895;DHT22;57172;52.034;5.090;2023-05-21T10:26:40;30.70;38.00
69895;DHT22;57172;52.034;5.090;2023-05-21T10:29:08;31.00;37.70
69895;DHT22;57172;52.034;5.090;2023-05-21T10:31:37;31.00;37.10
69895;DHT22;57172;52.034;5.090;2023-05-21T10:34:04;31.00;37.50
69895;DHT22;57172;52.034;5.090;2023-05-21T10:36:32;31.10;37.80
69895;DHT22;57172;52.034;5.090;2023-05-21T10:39:00;31.40;37.10
69895;DHT22;57172;52.034;5.090;2023-05-21T10:41:34;31.50;36.50
69895;DHT22;57172;52.034;5.090;2023-05-21T10:44:15;31.40;36.40
69895;DHT22;57172;52.034;5.090;2023-05-21T10:47:24;31.40;36.90
69895;DHT22;57172;52.034;5.090;2023-05-21T10:56:09;31.90;35.70
69895;DHT22;57172;52.034;5.090;2023-05-21T11:01:14;31.90;36.10
69895;DHT22;57172;52.034;5.090;2023-05-21T11:03:42;32.00;36.50
69895;DHT22;57172;52.034;5.090;2023-05-21T11:06:09;32.30;35.60
69895;DHT22;57172;52.034;5.090;2023-05-21T11:08:37;32.60;35.10
69895;DHT22;57172;52.034;5.090;2023-05-21T11:11:12;32.60;34.90
69895;DHT22;57172;52.034;5.090;2023-05-21T11:13:59;32.30;35.20
69895;DHT22;57172;52.034;5.090;2023-05-21T11:16:26;31.80;35.40
69895;DHT22;57172;52.034;5.090;2023-05-21T11:18:58;31.10;35.70
69895;DHT22;57172;52.034;5.090;2023-05-21T11:21:28;30.20;37.10
69895;DHT22;57172;52.034;5.090;2023-05-21T11:24:00;29.80;37.80
69895;DHT22;57172;52.034;5.090;2023-05-21T11:29:18;29.80;39.30
69895;DHT22;57172;52.034;5.090;2023-05-21T11:31:47;30.30;38.60
69895;DHT22;57172;52.034;5.090;2023-05-21T11:36:43;30.70;37.70
69895;DHT22;57172;52.034;5.090;2023-05-21T11:39:18;30.70;37.90
69895;DHT22;57172;52.034;5.090;2023-05-21T11:44:16;30.10;38.00
69895;DHT22;57172;52.034;5.090;2023-05-21T11:46:43;30.20;39.20
69895;DHT22;57172;52.034;5.090;2023-05-21T11:49:11;30.70;38.60
69895;DHT22;57172;52.034;5.090;2023-05-21T11:51:39;31.00;37.10
69895;DHT22;57172;52.034;5.090;2023-05-21T11:54:08;30.80;37.20
69895;DHT22;57172;52.034;5.090;2023-05-21T11:56:35;30.70;38.00
69895;DHT22;57172;52.034;5.090;2023-05-21T11:59:13;31.10;38.10
69895;DHT22;57172;52.034;5.090;2023-05-21T12:01:44;31.20;36.70
69895;DHT22;57172;52.034;5.090;2023-05-21T12:04:11;30.70;36.90
69895;DHT22;57172;52.034;5.090;2023-05-21T12:06:41;30.20;37.70
69895;DHT22;57172;52.034;5.090;2023-05-21T12:09:09;30.10;38.50
69895;DHT22;57172;52.034;5.090;2023-05-21T12:11:40;30.50;38.90
69895;DHT22;57172;52.034;5.090;2023-05-21T12:14:10;31.10;38.00
69895;DHT22;57172;52.034;5.090;2023-05-21T12:16:40;31.70;37.60
69895;DHT22;57172;52.034;5.090;2023-05-21T12:19:08;32.40;36.20
69895;DHT22;57172;52.034;5.090;2023-05-21T12:21:35;32.60;35.60
69895;DHT22;57172;52.034;5.090;2023-05-21T12:24:02;32.40;35.70
69895;DHT22;57172;52.034;5.090;2023-05-21T12:26:29;32.50;36.10
69895;DHT22;57172;52.034;5.090;2023-05-21T12:28:58;33.00;36.00
69895;DHT22;57172;52.034;5.090;2023-05-21T12:31:25;33.50;35.40
69895;DHT22;57172;52.034;5.090;2023-05-21T12:33:53;34.00;35.20
69895;DHT22;57172;52.034;5.090;2023-05-21T12:36:21;34.20;34.40
69895;DHT22;57172;52.034;5.090;2023-05-21T12:38:50;34.10;33.60
69895;DHT22;57172;52.034;5.090;2023-05-21T12:41:17;33.40;34.00
69895;DHT22;57172;52.034;5.090;2023-05-21T12:43:45;32.80;34.60
69895;DHT22;57172;52.034;5.090;2023-05-21T12:46:12;32.30;35.20
69895;DHT22;57172;52.034;5.090;2023-05-21T12:48:49;31.80;35.30
69895;DHT22;57172;52.034;5.090;2023-05-21T12:51:19;31.10;36.20
69895;DHT22;57172;52.034;5.090;2023-05-21T12:53:46;30.60;37.20
69895;DHT22;57172;52.034;5.090;2023-05-21T12:56:14;30.50;38.00
69895;DHT22;57172;52.034;5.090;2023-05-21T12:58:42;30.80;38.00
69895;DHT22;57172;52.034;5.090;2023-05-21T13:01:15;31.10;37.30
69895;DHT22;57172;52.034;5.090;2023-05-21T13:03:42;31.20;36.50
69895;DHT22;57172;52.034;5.090;2023-05-21T13:06:09;31.10;36.70
69895;DHT22;57172;52.034;5.090;2023-05-21T13:08:36;30.90;37.00
69895;DHT22;57172;52.034;5.090;2023-05-21T13:11:03;30.80;37.40
69895;DHT22;57172;52.034;5.090;2023-05-21T13:13:31;30.80;37.20
69895;DHT22;57172;52.034;5.090;2023-05-21T13:15:57;30.80;37.70
69895;DHT22;57172;52.034;5.090;2023-05-21T13:18:26;31.00;37.60
69895;DHT22;57172;52.034;5.090;2023-05-21T13:20:53;31.40;37.30
69895;DHT22;57172;52.034;5.090;2023-05-21T13:23:20;31.80;37.20
69895;DHT22;57172;52.034;5.090;2023-05-21T13:25:47;32.20;36.40
69895;DHT22;57172;52.034;5.090;2023-05-21T13:28:13;32.40;36.20
69895;DHT22;57172;52.034;5.090;2023-05-21T13:30:42;32.60;35.70
69895;DHT22;57172;52.034;5.090;2023-05-21T13:33:09;32.60;35.50
69895;DHT22;57172;52.034;5.090;2023-05-21T13:35:37;32.70;35.60
69895;DHT22;57172;52.034;5.090;2023-05-21T13:38:04;32.80;35.40
69895;DHT22;57172;52.034;5.090;2023-05-21T13:40:31;33.00;35.30
69895;DHT22;57172;52.034;5.090;2023-05-21T13:42:58;33.10;35.30
69895;DHT22;57172;52.034;5.090;2023-05-21T13:45:25;33.10;35.10
69895;DHT22;57172;52.034;5.090;2023-05-21T13:47:55;33.00;34.90
69895;DHT22;57172;52.034;5.090;2023-05-21T13:50:24;32.80;35.10
69895;DHT22;57172;52.034;5.090;2023-05-21T13:52:51;32.70;35.60
69895;DHT22;57172;52.034;5.090;2023-05-21T13:55:18;32.70;35.50
69895;DHT22;57172;52.034;5.090;2023-05-21T13:57:45;32.70;35.80
69895;DHT22;57172;52.034;5.090;2023-05-21T14:00:12;32.70;35.80
69895;DHT22;57172;52.034;5.090;2023-05-21T14:02:42;32.80;35.60
69895;DHT22;57172;52.034;5.090;2023-05-21T14:05:10;32.80;35.50
69895;DHT22;57172;52.034;5.090;2023-05-21T14:07:37;32.80;35.80
69895;DHT22;57172;52.034;5.090;2023-05-21T14:10:06;32.80;35.60
69895;DHT22;57172;52.034;5.090;2023-05-21T14:12:33;32.60;35.70
69895;DHT22;57172;52.034;5.090;2023-05-21T14:15:00;32.50;35.70
69895;DHT22;57172;52.034;5.090;2023-05-21T14:17:27;32.40;36.00
69895;DHT22;57172;52.034;5.090;2023-05-21T14:19:54;32.50;35.80
69895;DHT22;57172;52.034;5.090;2023-05-21T14:22:21;32.50;35.80
69895;DHT22;57172;52.034;5.090;2023-05-21T14:24:49;32.40;36.10
69895;DHT22;57172;52.034;5.090;2023-05-21T14:27:16;32.40;36.30
69895;DHT22;57172;52.034;5.090;2023-05-21T14:29:43;32.30;36.20
69895;DHT22;57172;52.034;5.090;2023-05-21T14:32:10;32.30;36.10
69895;DHT22;57172;52.034;5.090;2023-05-21T14:34:37;32.20;36.30
69895;DHT22;57172;52.034;5.090;2023-05-21T14:37:05;32.00;36.10
69895;DHT22;57172;52.034;5.090;2023-05-21T14:39:32;31.70;36.20
69895;DHT22;57172;52.034;5.090;2023-05-21T14:42:01;31.30;36.60
69895;DHT22;57172;52.034;5.090;2023-05-21T14:44:28;31.00;37.10
69895;DHT22;57172;52.034;5.090;2023-05-21T14:46:55;30.80;37.50
69895;DHT22;57172;52.034;5.090;2023-05-21T14:49:22;30.80;38.20
69895;DHT22;57172;52.034;5.090;2023-05-21T14:51:49;31.10;37.80
69895;DHT22;57172;52.034;5.090;2023-05-21T14:54:16;31.20;37.50
69895;DHT22;57172;52.034;5.090;2023-05-21T14:56:43;31.30;37.30
69895;DHT22;57172;52.034;5.090;2023-05-21T14:59:09;31.30;37.40
69895;DHT22;57172;52.034;5.090;2023-05-21T15:01:40;31.30;37.10
69895;DHT22;57172;52.034;5.090;2023-05-21T15:04:07;31.30;37.20
69895;DHT22;57172;52.034;5.090;2023-05-21T15:06:34;31.20;37.50
69895;DHT22;57172;52.034;5.090;2023-05-21T15:09:01;31.10;37.40
69895;DHT22;57172;52.034;5.090;2023-05-21T15:11:28;31.10;37.40
69895;DHT22;57172;52.034;5.090;2023-05-21T15:13:54;30.90;37.50
69895;DHT22;57172;52.034;5.090;2023-05-21T15:16:21;30.70;37.70
69895;DHT22;57172;52.034;5.090;2023-05-21T15:18:48;30.50;38.10
69895;DHT22;57172;52.034;5.090;2023-05-21T15:21:16;30.40;38.20
69895;DHT22;57172;52.034;5.090;2023-05-21T15:23:43;30.40;38.50
69895;DHT22;57172;52.034;5.090;2023-05-21T15:26:10;30.30;38.40
69895;DHT22;57172;52.034;5.090;2023-05-21T15:28:36;30.20;38.90
69895;DHT22;57172;52.034;5.090;2023-05-21T15:31:04;30.10;39.00
69895;DHT22;57172;52.034;5.090;2023-05-21T15:33:31;30.00;38.90
69895;DHT22;57172;52.034;5.090;2023-05-21T15:35:58;29.80;38.90
69895;DHT22;57172;52.034;5.090;2023-05-21T15:38:26;29.50;39.40
69895;DHT22;57172;52.034;5.090;2023-05-21T15:40:54;29.30;39.70
69895;DHT22;57172;52.034;5.090;2023-05-21T15:43:21;29.10;39.90
69895;DHT22;57172;52.034;5.090;2023-05-21T15:45:47;29.00;40.30
69895;DHT22;57172;52.034;5.090;2023-05-21T15:48:14;29.00;40.30
69895;DHT22;57172;52.034;5.090;2023-05-21T15:50:48;28.90;40.20
69895;DHT22;57172;52.034;5.090;2023-05-21T15:53:15;28.70;40.80
69895;DHT22;57172;52.034;5.090;2023-05-21T15:55:42;28.70;40.80
69895;DHT22;57172;52.034;5.090;2023-05-21T15:58:10;28.80;40.80